Time;durP1;ratioP1;P1;durP2;ratioP2;P2;SDS_P1;SDS_P2;PMS_P1;PMS_P2;Temp;Humidity;BMP_temperature;BMP_pressure;BME280_temperature;BME280_humidity;BME280_pressure;Samples;Min_cycle;Max_cycle;Signal;HPM_P1;HPM_P2
2021/11/28 00:00:45;;;;;;;;;;;;;;;1.06;81.64;98619.02;108401;1285;22037;-78
2021/11/28 00:03:17;;;;;;;;;;;;;;;1.02;81.68;98611.45;108336;1286;22146;-79
2021/11/28 00:06:03;;;;;;;;;;;;;;;0.98;81.61;98608.77;108326;1286;24030;-78
2021/11/28 00:11:26;;;;;;;;;;;;;;;0.81;81.59;98611.40;108292;1288;22735;-78
2021/11/28 00:16:32;;;;;;;;;;;;;;;0.71;81.75;98618.66;108517;1282;21975;-80
2021/11/28 00:19:03;;;;;;;;;;;;;;;0.66;81.73;98617.67;108660;1281;22747;-80
2021/11/28 00:21:35;;;;;;;;;;;;;;;0.63;81.87;98611.02;108763;1282;22273;-80
2021/11/28 00:24:04;;;;;;;;;;;;;;;0.63;81.93;98615.02;108740;1281;22014;-81
2021/11/28 00:26:33;;;;;;;;;;;;;;;0.63;81.89;98610.86;108752;1283;23129;-80
2021/11/28 00:29:07;;;;;;;;;;;;;;;0.62;81.81;98609.45;108200;1287;22397;-80
2021/11/28 00:31:37;;;;;;;;;;;;;;;0.60;81.78;98614.81;107940;1292;21994;-79
2021/11/28 00:34:06;;;;;;;;;;;;;;;0.58;81.79;98621.13;107905;1294;23085;-79
2021/11/28 00:36:40;;;;;;;;;;;;;;;0.54;81.83;98625.98;107605;1294;21991;-78
2021/11/28 00:39:09;;;;;;;;;;;;;;;0.51;81.73;98625.90;107942;1294;24152;-80
2021/11/28 00:41:38;;;;;;;;;;;;;;;0.47;81.83;98627.97;107783;1297;22000;-80
2021/11/28 00:44:31;;;;;;;;;;;;;;;0.45;81.90;98619.73;107717;1297;23308;-82
2021/11/28 00:47:00;;;;;;;;;;;;;;;0.42;81.84;98616.73;107796;1291;22125;-80
2021/11/28 00:49:30;;;;;;;;;;;;;;;0.38;81.82;98604.42;108188;1286;21982;-79
2021/11/28 00:52:00;;;;;;;;;;;;;;;0.34;81.84;98601.70;108198;1288;23054;-79
2021/11/28 00:54:30;;;;;;;;;;;;;;;0.30;81.91;98586.67;107932;1291;22446;-80
2021/11/28 00:56:59;;;;;;;;;;;;;;;0.27;82.01;98590.46;108006;1291;23634;-80
2021/11/28 00:59:30;;;;;;;;;;;;;;;0.24;81.97;98584.63;108373;1287;23055;-80
2021/11/28 01:02:00;;;;;;;;;;;;;;;0.20;81.99;98581.23;108441;1286;23854;-80
2021/11/28 01:04:30;;;;;;;;;;;;;;;0.15;82.08;98583.41;108614;1286;23045;-80
2021/11/28 01:07:04;;;;;;;;;;;;;;;0.13;81.98;98583.64;108683;1281;21992;-80
2021/11/28 01:09:48;;;;;;;;;;;;;;;0.11;82.12;98588.83;108773;1282;23637;-81
2021/11/28 01:12:19;;;;;;;;;;;;;;;0.11;82.19;98587.43;108885;1277;23053;-81
2021/11/28 01:14:51;;;;;;;;;;;;;;;0.12;82.22;98584.35;109023;1277;21938;-80
2021/11/28 01:17:20;;;;;;;;;;;;;;;0.13;82.23;98579.59;108955;1277;22080;-80
2021/11/28 01:19:49;;;;;;;;;;;;;;;0.12;82.22;98574.68;109078;1277;23028;-80
2021/11/28 01:22:19;;;;;;;;;;;;;;;0.13;82.24;98576.18;109111;1277;21969;-80
2021/11/28 01:24:48;;;;;;;;;;;;;;;0.14;82.28;98580.21;109057;1277;22229;-79
2021/11/28 01:27:18;;;;;;;;;;;;;;;0.16;82.21;98578.30;108703;1281;22258;-79
2021/11/28 01:29:47;;;;;;;;;;;;;;;0.16;82.12;98577.97;108659;1282;22939;-79
2021/11/28 01:32:17;;;;;;;;;;;;;;;0.12;82.02;98578.81;108721;1282;23589;-80
2021/11/28 01:34:47;;;;;;;;;;;;;;;0.09;82.01;98578.96;108713;1282;22451;-81
2021/11/28 01:37:19;;;;;;;;;;;;;;;0.06;82.14;98585.80;108618;1285;22350;-81
2021/11/28 01:39:50;;;;;;;;;;;;;;;0.06;82.20;98595.66;108633;1286;21980;-80
2021/11/28 01:42:38;;;;;;;;;;;;;;;0.07;82.13;98595.77;108647;1286;22026;-79
2021/11/28 01:45:28;;;;;;;;;;;;;;;0.06;82.02;98598.79;107996;1291;23580;-79
2021/11/28 01:48:01;;;;;;;;;;;;;;;0.06;82.14;98596.90;107781;1291;21976;-80
2021/11/28 01:50:33;;;;;;;;;;;;;;;0.07;82.22;98600.78;107588;1295;22041;-79
2021/11/28 01:53:08;;;;;;;;;;;;;;;0.06;82.23;98596.17;107714;1291;25011;-79
2021/11/28 01:55:38;;;;;;;;;;;;;;;0.06;82.21;98600.37;107924;1285;23666;-79
2021/11/28 01:58:29;;;;;;;;;;;;;;;0.05;82.10;98601.70;107991;1290;23869;-79
2021/11/28 02:01:07;;;;;;;;;;;;;;;0.04;82.13;98601.11;108143;1290;22329;-77
2021/11/28 02:03:44;;;;;;;;;;;;;;;0.03;82.12;98600.14;107810;1291;23704;-78
2021/11/28 02:06:16;;;;;;;;;;;;;;;0.04;82.14;98600.92;108034;1290;22077;-79
2021/11/28 02:08:46;;;;;;;;;;;;;;;0.03;82.15;98606.53;107930;1287;22027;-78
2021/11/28 02:11:16;;;;;;;;;;;;;;;0.01;82.12;98608.59;107969;1291;21998;-79
2021/11/28 02:13:46;;;;;;;;;;;;;;;0.02;82.13;98610.48;108034;1291;23688;-81
2021/11/28 02:16:16;;;;;;;;;;;;;;;0.02;82.12;98611.45;108107;1288;22231;-79
2021/11/28 02:18:46;;;;;;;;;;;;;;;0.03;82.27;98607.21;107794;1292;22028;-78
2021/11/28 02:21:15;;;;;;;;;;;;;;;0.02;82.11;98604.93;107819;1288;23059;-79
2021/11/28 02:23:45;;;;;;;;;;;;;;;0.01;82.09;98603.30;108088;1287;23610;-78
2021/11/28 02:26:15;;;;;;;;;;;;;;;-0.02;82.06;98601.29;107939;1291;21986;-79
2021/11/28 02:28:46;;;;;;;;;;;;;;;-0.06;82.13;98595.78;107814;1295;21983;-79
2021/11/28 02:31:15;;;;;;;;;;;;;;;-0.09;82.13;98600.85;107347;1295;23064;-79
2021/11/28 02:33:45;;;;;;;;;;;;;;;-0.11;82.19;98595.17;107796;1297;23659;-79
2021/11/28 02:36:15;;;;;;;;;;;;;;;-0.13;82.13;98596.22;108057;1288;21982;-79
2021/11/28 02:38:44;;;;;;;;;;;;;;;-0.15;82.07;98597.32;108231;1287;21968;-79
2021/11/28 02:41:14;;;;;;;;;;;;;;;-0.19;82.03;98596.27;108250;1287;21979;-79
2021/11/28 02:43:46;;;;;;;;;;;;;;;-0.25;81.96;98593.02;108186;1287;22004;-79
2021/11/28 02:46:17;;;;;;;;;;;;;;;-0.31;82.10;98604.11;108412;1281;23759;-80
2021/11/28 02:48:46;;;;;;;;;;;;;;;-0.35;82.15;98610.73;108466;1281;21975;-80
2021/11/28 02:51:16;;;;;;;;;;;;;;;-0.39;82.24;98616.98;108957;1277;22020;-79
2021/11/28 02:54:15;;;;;;;;;;;;;;;-0.42;82.25;98611.52;108881;1277;23632;-81
2021/11/28 02:56:48;;;;;;;;;;;;;;;-0.44;82.35;98604.84;109007;1277;23034;-80
2021/11/28 02:59:19;;;;;;;;;;;;;;;-0.46;82.40;98604.34;108935;1277;22718;-79
2021/11/28 03:01:48;;;;;;;;;;;;;;;-0.49;82.39;98601.46;109048;1277;21979;-78
2021/11/28 03:04:45;;;;;;;;;;;;;;;-0.51;82.51;98599.02;109140;1277;21978;-80
2021/11/28 03:07:18;;;;;;;;;;;;;;;-0.51;82.55;98603.21;109229;1277;23735;-78
2021/11/28 03:09:47;;;;;;;;;;;;;;;-0.50;82.54;98605.38;108828;1277;23596;-80
2021/11/28 03:12:17;;;;;;;;;;;;;;;-0.47;82.59;98610.67;108647;1283;21966;-80
2021/11/28 03:14:49;;;;;;;;;;;;;;;-0.41;82.76;98610.07;108609;1285;23009;-78
2021/11/28 03:17:22;;;;;;;;;;;;;;;-0.34;82.75;98611.05;108082;1287;21970;-79
2021/11/28 03:20:00;;;;;;;;;;;;;;;-0.31;82.72;98612.77;108432;1286;22053;-80
2021/11/28 03:23:32;;;;;;;;;;;;;;;-0.30;82.41;98609.39;108372;1286;22003;-80
2021/11/28 03:26:07;;;;;;;;;;;;;;;-0.33;82.24;98609.86;108379;1286;22013;-79
2021/11/28 03:29:10;;;;;;;;;;;;;;;-0.34;82.32;98615.13;108535;1286;22769;-79
2021/11/28 03:31:58;;;;;;;;;;;;;;;-0.34;82.42;98626.70;107936;1292;23049;-79
2021/11/28 03:34:37;;;;;;;;;;;;;;;-0.33;82.34;98628.02;108011;1291;21992;-79
2021/11/28 03:37:14;;;;;;;;;;;;;;;-0.34;82.34;98627.42;108125;1288;23078;-79
2021/11/28 03:39:44;;;;;;;;;;;;;;;-0.36;82.30;98629.20;108124;1287;21986;-79
2021/11/28 03:42:13;;;;;;;;;;;;;;;-0.41;82.27;98630.98;108093;1288;22004;-78
2021/11/28 03:44:51;;;;;;;;;;;;;;;-0.43;82.35;98639.65;108068;1287;23681;-79
2021/11/28 03:47:20;;;;;;;;;;;;;;;-0.43;82.29;98639.32;108130;1287;23039;-79
2021/11/28 03:49:56;;;;;;;;;;;;;;;-0.43;82.33;98639.02;108142;1287;21980;-80
2021/11/28 03:52:26;;;;;;;;;;;;;;;-0.45;82.42;98632.95;108125;1287;21997;-80
2021/11/28 03:54:57;;;;;;;;;;;;;;;-0.46;82.33;98622.20;108482;1284;23087;-79
2021/11/28 03:57:31;;;;;;;;;;;;;;;-0.45;82.46;98620.69;108273;1289;23740;-80
2021/11/28 04:00:00;;;;;;;;;;;;;;;-0.42;82.56;98622.61;108032;1289;22019;-80
2021/11/28 04:02:33;;;;;;;;;;;;;;;-0.40;82.43;98623.64;108267;1289;23135;-80
2021/11/28 04:05:09;;;;;;;;;;;;;;;-0.42;82.31;98619.75;108027;1292;23764;-80
2021/11/28 04:07:44;;;;;;;;;;;;;;;-0.47;82.25;98617.74;107588;1292;23605;-81
2021/11/28 04:10:15;;;;;;;;;;;;;;;-0.51;82.18;98617.04;107861;1294;22010;-80
2021/11/28 04:12:45;;;;;;;;;;;;;;;-0.54;82.25;98618.81;108029;1291;21981;-80
2021/11/28 04:15:17;;;;;;;;;;;;;;;-0.56;82.27;98613.52;108024;1292;22283;-80
2021/11/28 04:18:11;;;;;;;;;;;;;;;-0.60;82.30;98607.88;107563;1295;25136;-78
2021/11/28 04:20:42;;;;;;;;;;;;;;;-0.63;82.31;98605.34;107452;1297;23716;-80
2021/11/28 04:23:12;;;;;;;;;;;;;;;-0.65;82.39;98601.17;107804;1291;23688;-80
2021/11/28 04:25:45;;;;;;;;;;;;;;;-0.67;82.40;98590.54;108265;1292;22196;-80
2021/11/28 04:31:38;;;;;;;;;;;;;;;-0.72;82.50;98586.09;107884;1297;22549;-82
2021/11/28 04:34:14;;;;;;;;;;;;;;;-0.71;82.69;98581.86;108333;1291;22988;-80
2021/11/28 04:36:44;;;;;;;;;;;;;;;-0.71;82.68;98571.13;107847;1291;22052;-80
2021/11/28 04:39:16;;;;;;;;;;;;;;;-0.72;82.55;98566.88;108056;1291;23630;-80
2021/11/28 04:41:47;;;;;;;;;;;;;;;-0.69;82.73;98561.33;107608;1291;23068;-79
2021/11/28 04:44:17;;;;;;;;;;;;;;;-0.66;82.79;98560.83;107510;1297;22180;-80
2021/11/28 04:46:51;;;;;;;;;;;;;;;-0.68;82.46;98570.23;107623;1297;22094;-80
2021/11/28 04:49:21;;;;;;;;;;;;;;;-0.74;82.46;98569.67;107454;1295;22005;-79
2021/11/28 04:51:51;;;;;;;;;;;;;;;-0.78;82.49;98577.86;107077;1300;21986;-81
2021/11/28 04:54:23;;;;;;;;;;;;;;;-0.82;82.51;98574.05;107298;1300;21996;-82
2021/11/28 04:56:55;;;;;;;;;;;;;;;-0.85;82.54;98572.63;106884;1301;22051;-81
2021/11/28 04:59:28;;;;;;;;;;;;;;;-0.88;82.67;98571.95;107202;1301;21998;-81
2021/11/28 05:01:58;;;;;;;;;;;;;;;-0.87;82.74;98573.48;107162;1301;25166;-82
2021/11/28 05:04:33;;;;;;;;;;;;;;;-0.83;82.73;98578.27;107414;1301;22023;-83
2021/11/28 05:07:32;;;;;;;;;;;;;;;-0.77;82.88;98576.90;108023;1291;21967;-83
2021/11/28 05:10:04;;;;;;;;;;;;;;;-0.74;82.84;98580.20;108347;1283;22007;-80
2021/11/28 05:12:40;;;;;;;;;;;;;;;-0.69;82.85;98589.98;108583;1284;23598;-79
2021/11/28 05:15:10;;;;;;;;;;;;;;;-0.65;82.82;98608.30;108614;1281;21991;-78
2021/11/28 05:17:50;;;;;;;;;;;;;;;-0.60;82.83;98625.27;109039;1275;22812;-80
2021/11/28 05:20:20;;;;;;;;;;;;;;;-0.55;82.87;98616.04;109227;1275;21953;-79
2021/11/28 05:22:55;;;;;;;;;;;;;;;-0.52;82.74;98614.39;109204;1275;21958;-80
2021/11/28 05:25:24;;;;;;;;;;;;;;;-0.49;82.76;98617.38;109015;1277;21987;-80
2021/11/28 05:27:53;;;;;;;;;;;;;;;-0.44;82.75;98622.70;108884;1275;22885;-79
2021/11/28 05:30:24;;;;;;;;;;;;;;;-0.41;82.77;98619.61;108869;1276;23083;-80
2021/11/28 05:33:29;;;;;;;;;;;;;;;-0.42;82.40;98618.45;108997;1274;23599;-78
2021/11/28 05:36:17;;;;;;;;;;;;;;;-0.45;82.32;98619.81;109036;1275;21980;-80
2021/11/28 05:38:57;;;;;;;;;;;;;;;-0.43;82.39;98620.30;109351;1275;21964;-78
2021/11/28 05:41:26;;;;;;;;;;;;;;;-0.41;82.38;98620.83;109034;1275;22203;-78
2021/11/28 05:43:55;;;;;;;;;;;;;;;-0.43;82.14;98617.02;108947;1275;23852;-79
2021/11/28 05:46:25;;;;;;;;;;;;;;;-0.48;82.10;98620.88;108932;1275;21986;-79
2021/11/28 05:49:03;;;;;;;;;;;;;;;-0.53;81.96;98626.91;109290;1275;23579;-79
2021/11/28 05:51:47;;;;;;;;;;;;;;;-0.62;81.88;98626.55;108852;1275;23003;-80
2021/11/28 05:54:16;;;;;;;;;;;;;;;-0.66;81.87;98622.25;109250;1275;23045;-80
2021/11/28 05:56:46;;;;;;;;;;;;;;;-0.69;81.96;98620.56;108764;1281;22981;-80
2021/11/28 05:59:15;;;;;;;;;;;;;;;-0.69;82.05;98622.34;108450;1281;22013;-79
2021/11/28 06:01:45;;;;;;;;;;;;;;;-0.67;82.10;98626.99;108246;1288;21966;-78
2021/11/28 06:04:15;;;;;;;;;;;;;;;-0.65;82.08;98632.71;108130;1288;21971;-80
2021/11/28 06:07:08;;;;;;;;;;;;;;;-0.72;81.80;98631.53;108411;1288;22093;-79
2021/11/28 06:09:41;;;;;;;;;;;;;;;-0.81;81.65;98630.13;108330;1287;22061;-79
2021/11/28 06:12:14;;;;;;;;;;;;;;;-0.90;81.70;98631.27;108367;1288;22767;-78
2021/11/28 06:14:43;;;;;;;;;;;;;;;-0.97;81.79;98636.86;108200;1281;23018;-79
2021/11/28 06:17:17;;;;;;;;;;;;;;;-1.05;81.80;98639.13;108463;1284;22074;-79
2021/11/28 06:20:15;;;;;;;;;;;;;;;-1.12;81.91;98639.08;108562;1281;23560;-79
2021/11/28 06:23:01;;;;;;;;;;;;;;;-1.16;82.04;98633.41;108878;1281;22008;-78
2021/11/28 06:25:30;;;;;;;;;;;;;;;-1.19;82.07;98637.59;108856;1280;23053;-79
2021/11/28 06:28:33;;;;;;;;;;;;;;;-1.20;82.17;98641.52;108524;1281;22025;-80
2021/11/28 06:31:16;;;;;;;;;;;;;;;-1.19;82.28;98642.84;108834;1280;23665;-79
2021/11/28 06:34:45;;;;;;;;;;;;;;;-1.14;82.43;98646.35;108371;1281;22824;-79
2021/11/28 06:37:38;;;;;;;;;;;;;;;-1.14;82.24;98653.27;109099;1279;21996;-79
2021/11/28 06:40:30;;;;;;;;;;;;;;;-1.19;82.17;98653.20;109098;1280;22071;-80
2021/11/28 06:43:11;;;;;;;;;;;;;;;-1.20;82.27;98653.99;109336;1275;21953;-79
2021/11/28 06:45:50;;;;;;;;;;;;;;;-1.20;82.30;98652.06;108887;1275;21965;-77
2021/11/28 06:48:40;;;;;;;;;;;;;;;-1.17;82.40;98655.77;108661;1281;21996;-78
2021/11/28 06:51:58;;;;;;;;;;;;;;;-1.12;82.41;98664.72;108573;1280;21978;-78
2021/11/28 06:54:56;;;;;;;;;;;;;;;-1.16;82.12;98656.77;108954;1280;23745;-79
2021/11/28 07:01:22;;;;;;;;;;;;;;;-1.18;82.41;98647.77;108461;1286;23788;-76
2021/11/28 07:04:25;;;;;;;;;;;;;;;-1.12;82.63;98643.63;108224;1287;23125;-82
2021/11/28 07:07:42;;;;;;;;;;;;;;;-1.05;82.68;98647.29;108577;1280;21964;-81
2021/11/28 07:11:16;;;;;;;;;;;;;;;-0.99;82.77;98650.40;108508;1281;22014;-78
2021/11/28 07:14:25;;;;;;;;;;;;;;;-0.91;82.89;98656.80;108639;1281;23683;-79
2021/11/28 07:17:35;;;;;;;;;;;;;;;-0.86;82.73;98659.79;108653;1280;22263;-79
2021/11/28 07:21:08;;;;;;;;;;;;;;;;;;;;;
2021/11/28 07:23:58;;;;;;;;;;;;;;;-0.66;82.90;98643.45;108200;1286;23611;-78
2021/11/28 07:26:36;;;;;;;;;;;;;;;-0.60;82.77;98640.86;107796;1292;22774;-78
2021/11/28 07:29:37;;;;;;;;;;;;;;;-0.56;82.69;98645.55;107822;1290;22051;-78
2021/11/28 07:32:38;;;;;;;;;;;;;;;-0.47;82.77;98650.26;108189;1285;21993;-78
2021/11/28 07:35:50;;;;;;;;;;;;;;;-0.36;82.98;98660.98;108251;1286;21982;-79
2021/11/28 07:38:39;;;;;;;;;;;;;;;-0.25;82.87;98666.15;108411;1281;22984;-79
2021/11/28 07:41:30;;;;;;;;;;;;;;;;;;;;;
2021/11/28 07:45:02;;;;;;;;;;;;;;;-0.30;81.95;98670.32;108307;1281;23006;-78
2021/11/28 07:48:40;;;;;;;;;;;;;;;;;;;;;
2021/11/28 07:51:35;;;;;;;;;;;;;;;-0.19;82.57;98660.98;108480;1283;23004;-79
2021/11/28 07:54:25;;;;;;;;;;;;;;;-0.08;82.59;98658.75;108482;1281;23704;-79
2021/11/28 07:57:35;;;;;;;;;;;;;;;-0.03;82.28;98664.69;107968;1289;21978;-80
2021/11/28 08:00:46;;;;;;;;;;;;;;;-0.00;82.29;98665.17;108039;1288;22704;-79
2021/11/28 08:03:43;;;;;;;;;;;;;;;0.05;82.28;98669.39;108117;1292;23148;-78
2021/11/28 08:06:53;;;;;;;;;;;;;;;0.18;82.63;98671.28;108009;1292;22016;-79
2021/11/28 08:09:54;;;;;;;;;;;;;;;0.27;82.35;98675.13;107753;1292;23576;-78
2021/11/28 08:12:47;;;;;;;;;;;;;;;0.22;81.71;98677.92;107580;1296;23133;-78
2021/11/28 08:15:18;;;;;;;;;;;;;;;0.15;81.55;98677.80;107610;1294;22010;-79
2021/11/28 08:17:51;;;;;;;;;;;;;;;0.11;81.70;98676.42;107706;1294;22937;-79
2021/11/28 08:20:23;;;;;;;;;;;;;;;0.10;81.64;98689.09;107801;1294;22047;-79
2021/11/28 08:23:10;;;;;;;;;;;;;;;;;;;;;
2021/11/28 08:26:06;;;;;;;;;;;;;;;0.07;81.69;98708.76;107831;1293;22927;-82
2021/11/28 08:28:55;;;;;;;;;;;;;;;0.16;82.10;98702.91;107503;1297;22027;-78
2021/11/28 08:31:27;;;;;;;;;;;;;;;0.30;82.47;98704.39;107539;1295;21994;-77
2021/11/28 08:34:15;;;;;;;;;;;;;;;0.47;82.55;98707.48;107715;1290;22038;-78
2021/11/28 08:37:04;;;;;;;;;;;;;;;0.61;82.47;98706.68;107788;1294;22299;-78
2021/11/28 08:39:34;;;;;;;;;;;;;;;0.67;82.19;98702.45;108154;1288;22000;-77
2021/11/28 08:42:07;;;;;;;;;;;;;;;0.67;81.76;98696.66;107884;1292;22016;-77
2021/11/28 08:44:40;;;;;;;;;;;;;;;0.67;81.62;98693.83;108019;1291;22465;-77
2021/11/28 08:47:11;;;;;;;;;;;;;;;0.68;81.51;98699.07;108082;1291;23676;-78
2021/11/28 08:49:45;;;;;;;;;;;;;;;0.68;81.25;98701.02;108140;1288;22752;-78
2021/11/28 08:52:14;;;;;;;;;;;;;;;0.70;81.34;98707.96;108190;1287;21989;-79
2021/11/28 08:54:48;;;;;;;;;;;;;;;0.74;81.42;98706.19;108195;1287;23694;-78
2021/11/28 08:57:18;;;;;;;;;;;;;;;0.77;81.42;98710.60;108179;1288;23138;-78
2021/11/28 08:59:49;;;;;;;;;;;;;;;0.85;81.61;98711.76;108183;1280;23697;-78
2021/11/28 09:04:33;;;;;;;86.40;66.10;;;;;;;1.06;81.57;98706.63;106427;1306;544918;-76
2021/11/28 09:07:06;;;;;;;90.80;74.30;;;;;;;1.06;81.23;98705.31;108115;1287;21979;-77
2021/11/28 09:09:36;;;;;;;;;;;;;;;1.09;81.07;98702.68;108070;1288;24133;-76
2021/11/28 09:12:06;;;;;;;113.00;78.90;;;;;;;1.11;81.44;98699.48;108502;1281;23908;-77
2021/11/28 09:14:36;;;;;;;95.60;73.60;;;;;;;1.19;81.36;98693.71;108477;1281;22226;-77
2021/11/28 09:17:06;;;;;;;84.50;66.50;;;;;;;1.27;81.05;98689.52;107903;1284;208198;-78
2021/11/28 09:19:52;;;;;;;80.00;64.10;;;;;;;1.32;80.96;98685.11;108338;1284;22462;-77
2021/11/28 09:25:25;;;;;;;96.50;71.40;;;;;;;1.31;79.75;98671.05;108511;1278;22992;-78
2021/11/28 09:28:24;;;;;;;99.60;75.00;;;;;;;1.32;80.06;98667.10;108459;1282;22098;-77
2021/11/28 09:30:53;;;;;;;87.00;71.00;;;;;;;1.34;79.77;98670.38;108347;1285;24391;-77
2021/11/28 09:33:22;;;;;;;96.70;76.70;;;;;;;1.39;79.88;98668.66;108038;1290;22023;-77
2021/11/28 09:35:52;;;;;;;89.10;72.40;;;;;;;1.50;79.94;98663.47;108076;1289;22006;-77
2021/11/28 09:38:21;;;;;;;83.50;68.80;;;;;;;1.58;79.93;98652.43;107722;1295;22865;-77
2021/11/28 09:40:53;;;;;;;82.00;69.60;;;;;;;1.64;79.68;98642.95;107704;1291;22132;-77
2021/11/28 09:43:26;;;;;;;92.00;71.60;;;;;;;1.70;79.47;98638.26;107948;1291;22070;-77
2021/11/28 09:45:56;;;;;;;;;;;;;;;1.68;78.94;98641.86;108023;1289;22491;-77
2021/11/28 09:48:25;;;;;;;103.40;82.60;;;;;;;1.58;78.83;98645.80;108026;1289;22021;-77
2021/11/28 09:50:56;;;;;;;120.20;105.40;;;;;;;1.58;79.00;98649.61;107615;1291;22784;-76
2021/11/28 09:53:41;;;;;;;103.70;79.60;;;;;;;1.57;78.64;98648.04;107788;1291;22758;-77
2021/11/28 09:56:12;;;;;;;117.70;84.70;;;;;;;1.56;78.64;98645.36;108240;1285;23754;-77
2021/11/28 09:58:43;;;;;;;112.40;80.00;;;;;;;1.54;78.40;98648.48;108258;1286;23698;-77
2021/11/28 10:01:13;;;;;;;124.30;89.60;;;;;;;1.51;78.29;98646.17;108101;1291;23113;-76
2021/11/28 10:03:44;;;;;;;137.30;90.00;;;;;;;1.48;78.08;98646.31;108192;1282;23989;-77
2021/11/28 10:06:13;;;;;;;139.90;95.80;;;;;;;1.45;77.95;98648.02;108097;1285;23000;-78
2021/11/28 10:08:43;;;;;;;155.60;104.80;;;;;;;1.41;77.85;98650.42;108072;1285;22041;-77
2021/11/28 10:11:18;;;;;;;163.20;111.30;;;;;;;1.34;77.56;98646.40;108246;1285;23225;-77
2021/11/28 10:13:51;;;;;;;163.50;110.10;;;;;;;1.26;77.39;98638.76;108424;1284;23929;-77
2021/11/28 10:16:21;;;;;;;167.90;116.80;;;;;;;1.15;77.33;98634.41;108529;1284;22006;-77
2021/11/28 10:18:51;;;;;;;176.90;123.00;;;;;;;1.05;77.28;98636.10;108449;1278;22015;-77
2021/11/28 10:21:21;;;;;;;170.50;122.50;;;;;;;0.98;77.58;98642.17;108466;1284;22412;-78
2021/11/28 10:24:18;;;;;;;182.60;128.40;;;;;;;0.95;77.71;98642.63;108255;1285;22002;-77
2021/11/28 10:27:08;;;;;;;192.10;138.80;;;;;;;0.94;78.04;98638.52;108193;1286;23639;-77
2021/11/28 10:29:41;;;;;;;211.10;148.00;;;;;;;0.99;78.17;98641.93;108415;1285;22490;-78
2021/11/28 10:32:14;;;;;;;214.00;151.30;;;;;;;0.96;78.00;98643.54;108367;1285;22110;-77
2021/11/28 10:34:49;;;;;;;205.20;140.30;;;;;;;0.96;78.13;98642.42;108349;1285;24328;-77
2021/11/28 10:37:24;;;;;;;202.10;132.80;;;;;;;0.95;78.01;98641.02;108179;1285;24356;-78
2021/11/28 10:39:59;;;;;;;187.20;125.00;;;;;;;0.91;78.02;98641.25;108310;1280;22011;-77
2021/11/28 10:42:35;;;;;;;171.20;118.00;;;;;;;0.88;78.03;98640.21;108677;1280;22662;-76
2021/11/28 10:45:20;;;;;;;156.80;106.40;;;;;;;0.86;78.23;98642.77;108408;1282;22843;-77
2021/11/28 10:47:55;;;;;;;155.10;99.70;;;;;;;0.78;77.77;98638.88;108507;1280;22070;-77
2021/11/28 10:50:33;;;;;;;157.40;109.20;;;;;;;0.67;77.83;98634.90;108412;1284;22231;-77
2021/11/28 10:53:24;;;;;;;168.70;110.40;;;;;;;0.63;78.13;98644.29;108067;1288;22032;-78
2021/11/28 10:56:00;;;;;;;170.90;111.50;;;;;;;0.62;78.32;98649.78;107440;1298;22022;-78
2021/11/28 10:58:30;;;;;;;168.40;106.00;;;;;;;0.64;78.59;98648.05;107759;1294;22180;-77
2021/11/28 11:01:01;;;;;;;184.80;113.20;;;;;;;0.67;78.79;98640.67;107656;1295;22197;-77
2021/11/28 11:03:47;;;;;;;176.10;117.30;;;;;;;0.69;78.87;98635.24;107873;1290;23084;-77
2021/11/28 11:06:24;;;;;;;151.80;98.60;;;;;;;0.76;79.16;98635.61;107920;1289;22053;-77
2021/11/28 11:09:21;;;;;;;142.20;98.00;;;;;;;0.85;79.05;98635.65;107838;1291;21995;-78
2021/11/28 11:11:53;;;;;;;140.70;97.20;;;;;;;0.88;78.94;98624.81;108231;1285;22015;-78
2021/11/28 11:14:24;;;;;;;130.30;94.80;;;;;;;0.88;78.78;98623.54;108148;1285;22025;-77
2021/11/28 11:17:02;;;;;;;137.40;93.80;;;;;;;0.89;78.85;98625.82;107617;1292;22829;-78
2021/11/28 11:19:49;;;;;;;148.20;100.10;;;;;;;0.88;78.53;98617.52;107784;1292;22980;-77
2021/11/28 11:22:27;;;;;;;140.60;96.70;;;;;;;0.84;78.68;98615.64;108006;1291;22003;-78
2021/11/28 11:25:00;;;;;;;132.90;95.80;;;;;;;0.89;78.98;98606.06;107482;1294;22211;-78
2021/11/28 11:27:44;;;;;;;140.70;97.60;;;;;;;0.97;79.11;98598.95;107815;1291;23763;-79
2021/11/28 11:30:25;;;;;;;130.50;91.70;;;;;;;1.05;79.15;98592.45;107725;1294;22030;-79
2021/11/28 11:33:11;;;;;;;121.70;87.70;;;;;;;1.08;78.87;98592.64;107950;1288;21996;-78
2021/11/28 11:35:52;;;;;;;117.20;87.70;;;;;;;1.10;78.80;98585.02;108052;1288;23040;-79
2021/11/28 11:38:27;;;;;;;114.70;83.20;;;;;;;1.11;78.69;98577.64;107484;1292;22041;-79
2021/11/28 11:41:18;;;;;;;112.30;82.70;;;;;;;1.13;78.65;98572.97;107430;1295;22012;-78
2021/11/28 11:44:16;;;;;;;111.70;80.40;;;;;;;1.15;78.58;98562.52;108059;1289;23590;-77
2021/11/28 11:46:52;;;;;;;117.80;86.50;;;;;;;1.11;78.45;98567.41;108068;1290;22010;-78
2021/11/28 11:49:39;;;;;;;114.70;84.50;;;;;;;1.11;78.48;98564.77;108087;1290;22025;-78
2021/11/28 11:52:21;;;;;;;121.50;85.50;;;;;;;1.10;78.32;98561.96;108041;1290;23777;-78
2021/11/28 11:55:10;;;;;;;106.30;79.10;;;;;;;1.06;78.24;98559.95;107951;1290;23707;-78
2021/11/28 11:58:19;;;;;;;110.10;80.40;;;;;;;1.04;78.24;98563.42;108185;1285;22760;-78
2021/11/28 12:01:10;;;;;;;108.40;78.20;;;;;;;1.06;78.54;98567.17;108405;1282;23380;-80
2021/11/28 12:03:50;;;;;;;112.40;79.80;;;;;;;1.07;78.34;98558.05;108501;1284;22000;-78
2021/11/28 12:06:56;;;;;;;107.60;78.60;;;;;;;1.06;78.26;98561.48;108248;1285;23740;-77
2021/11/28 12:09:32;;;;;;;116.50;84.70;;;;;;;1.09;78.49;98559.23;107475;1295;22985;-77
2021/11/28 12:12:12;;;;;;;112.50;81.50;;;;;;;1.16;78.65;98549.06;107556;1295;22013;-77
2021/11/28 12:15:28;;;;;;;;;;;;;;;1.21;78.58;98549.79;107525;1296;22025;-77
2021/11/28 12:19:03;;;;;;;117.20;77.30;;;;;;;1.16;78.64;98549.20;107337;1294;23723;-78
2021/11/28 12:21:43;;;;;;;107.70;73.10;;;;;;;1.21;78.79;98549.64;107728;1292;23749;-78
2021/11/28 12:24:28;;;;;;;95.10;70.90;;;;;;;1.25;78.55;98549.33;107651;1294;23058;-77
2021/11/28 12:27:13;;;;;;;106.50;74.90;;;;;;;1.27;78.40;98546.55;107475;1291;23789;-78
2021/11/28 12:29:53;;;;;;;108.70;78.50;;;;;;;1.29;78.27;98548.95;108032;1290;22000;-79
2021/11/28 12:32:34;;;;;;;111.80;78.50;;;;;;;1.31;78.21;98548.42;107598;1294;22038;-78
2021/11/28 12:35:39;;;;;;;113.00;79.70;;;;;;;1.31;77.96;98549.66;107509;1294;22060;-80
2021/11/28 12:38:59;;;;;;;114.20;80.70;;;;;;;1.27;77.89;98548.61;107567;1289;23780;-78
2021/11/28 12:44:32;;;;;;;113.30;83.40;;;;;;;1.28;77.96;98542.45;108286;1286;22008;-78
2021/11/28 12:47:08;;;;;;;113.90;82.10;;;;;;;1.28;77.83;98540.41;108745;1279;22019;-77
2021/11/28 12:50:18;;;;;;;107.60;78.20;;;;;;;1.29;77.90;98540.28;108746;1275;22031;-79
2021/11/28 12:53:02;;;;;;;102.50;74.50;;;;;;;1.26;77.72;98537.59;108194;1288;23610;-79
2021/11/28 12:55:34;;;;;;;110.60;78.00;;;;;;;1.26;77.85;98536.14;108062;1288;22019;-77
2021/11/28 12:58:06;;;;;;;107.00;76.10;;;;;;;1.28;77.87;98533.80;107932;1292;22070;-77
2021/11/28 13:00:49;;;;;;;112.40;79.40;;;;;;;1.30;77.77;98536.78;107767;1292;23787;-76
2021/11/28 13:03:23;;;;;;;109.90;78.10;;;;;;;1.28;77.66;98537.79;107639;1294;23612;-76
2021/11/28 13:05:57;;;;;;;122.10;84.20;;;;;;;1.26;77.49;98535.20;107748;1292;22135;-77
2021/11/28 13:08:29;;;;;;;112.90;83.60;;;;;;;1.20;77.41;98537.05;107760;1295;22082;-77
2021/11/28 13:11:27;;;;;;;114.70;82.00;;;;;;;1.16;77.40;98541.63;107932;1287;22439;-78
2021/11/28 13:14:00;;;;;;;109.40;80.00;;;;;;;1.13;77.68;98542.91;108217;1287;22371;-78
2021/11/28 13:16:33;;;;;;;117.10;84.20;;;;;;;1.16;77.79;98544.16;108101;1285;24509;-77
2021/11/28 13:19:03;;;;;;;109.00;77.60;;;;;;;1.17;77.72;98545.31;108135;1287;21983;-78
2021/11/28 13:21:55;;;;;;;118.00;86.00;;;;;;;1.16;77.76;98539.88;108127;1284;23831;-77
2021/11/28 13:24:44;;;;;;;123.90;91.50;;;;;;;1.17;77.85;98537.35;108108;1288;22008;-77
2021/11/28 13:27:34;;;;;;;110.80;79.80;;;;;;;1.20;77.99;98532.66;108346;1284;22128;-79
2021/11/28 13:30:07;;;;;;;120.50;84.50;;;;;;;1.19;77.84;98530.19;108452;1283;23181;-78
2021/11/28 13:32:36;;;;;;;115.20;83.20;;;;;;;1.17;77.67;98525.73;108391;1283;21995;-77
2021/11/28 13:35:16;;;;;;;124.40;87.10;;;;;;;1.09;77.60;98527.21;108367;1283;21982;-76